EKYT/AAL METAR and TAF weather

Enter ICAO airport designator
Station Type Date Time Source
EKYT METAR 2019/08/24 08:50 UTC NOAA

EKYT 240850Z AUTO 23002KT 9999 NCD 19/16 Q1026


Station Type Date Time Source
EKYT Decoded METAR 2019/08/24 08:50 UTC NOAA

Station name not available
Aug 24, 2019 - 04:50 AM EDT / 2019.08.24 0850 UTC
Wind: from the SW (230 degrees) at 2 MPH (2 KT):0
Visibility: greater than 7 mile(s):0
Temperature: 66 F (19 C)
Dew Point: 60 F (16 C)
Relative Humidity: 82%
Pressure (altimeter): 30.30 in. Hg (1026 hPa)
ob: EKYT 240850Z AUTO 23002KT 9999 NCD 19/16 Q1026
cycle: 9

Station Type Date Time Source
EKYT TAF 2019/08/24 09:30 UTC NOAA

TAF EKYT 240803Z 2409/2509 VRB03KT 9999 FEW040
TEMPO 2409/2410 BKN003
TEMPO 2410/2412 BKN008
BECMG 2411/2414 11008KT

Example: see airport list